Time;durP1;ratioP1;P1;durP2;ratioP2;P2;SDS_P1;SDS_P2;PMS_P1;PMS_P2;Temp;Humidity;BMP_temperature;BMP_pressure;BME280_temperature;BME280_humidity;BME280_pressure;Samples;Min_cycle;Max_cycle;Signal;HPM_P1;HPM_P2
2023/12/04 00:00:48;;;;;;;1999.90;999.90;;;1.30;99.90;;;;;;4988967;28;20054;-71
2023/12/04 00:03:14;;;;;;;1999.90;999.90;;;1.30;99.90;;;;;;4983970;28;20037;-71
2023/12/04 00:05:43;;;;;;;1999.90;999.90;;;1.30;99.90;;;;;;4990395;28;20027;-71
2023/12/04 00:08:09;;;;;;;1999.90;999.90;;;1.30;99.90;;;;;;4989905;28;20412;-71
2023/12/04 00:10:35;;;;;;;1999.90;999.90;;;1.30;99.90;;;;;;4993154;28;20113;-71
2023/12/04 00:13:00;;;;;;;1999.90;999.90;;;1.20;99.90;;;;;;4991577;28;20054;-71
2023/12/04 00:15:26;;;;;;;1999.90;999.90;;;1.30;99.90;;;;;;4991093;28;20031;-71
2023/12/04 00:17:52;;;;;;;1999.90;999.90;;;1.30;99.90;;;;;;4989188;28;20431;-70
2023/12/04 00:20:17;;;;;;;1999.90;999.90;;;1.20;99.90;;;;;;4990354;28;20030;-71
2023/12/04 00:22:43;;;;;;;1999.90;999.90;;;1.20;99.90;;;;;;4987737;28;20034;-71
2023/12/04 00:25:09;;;;;;;1999.90;999.90;;;1.20;99.90;;;;;;4993050;28;20043;-71
2023/12/04 00:27:35;;;;;;;1999.90;999.90;;;1.20;99.90;;;;;;4990933;28;20077;-71
2023/12/04 00:30:03;;;;;;;1999.90;999.90;;;1.30;99.90;;;;;;4990934;28;20050;-71
2023/12/04 00:32:29;;;;;;;1999.90;999.90;;;1.20;99.90;;;;;;4988833;28;20027;-71
2023/12/04 00:34:54;;;;;;;1999.90;999.90;;;1.30;99.90;;;;;;5012617;28;20048;-74
2023/12/04 00:37:20;;;;;;;1999.90;999.90;;;1.30;99.90;;;;;;4990341;28;20030;-71
2023/12/04 00:39:46;;;;;;;1999.90;999.90;;;1.20;99.90;;;;;;4990659;28;20099;-73
2023/12/04 00:42:12;;;;;;;1999.90;999.90;;;1.20;99.90;;;;;;4987781;28;20027;-71
2023/12/04 00:44:37;;;;;;;1999.90;999.90;;;1.30;99.90;;;;;;4974115;28;20030;-71
2023/12/04 00:47:03;;;;;;;1999.90;999.90;;;1.30;99.90;;;;;;4989449;28;20357;-71
2023/12/04 00:49:29;;;;;;;1999.90;999.90;;;1.30;99.90;;;;;;5003272;28;20411;-71
2023/12/04 00:51:54;;;;;;;1999.90;999.90;;;1.30;99.90;;;;;;4990413;28;20441;-71
2023/12/04 00:54:20;;;;;;;1999.90;999.90;;;1.30;99.90;;;;;;4999665;28;20034;-71
2023/12/04 00:56:46;;;;;;;1999.90;999.90;;;1.30;99.90;;;;;;4991158;28;20530;-71
2023/12/04 00:59:12;;;;;;;1999.90;999.90;;;1.30;99.90;;;;;;4989198;28;20034;-71
2023/12/04 01:01:37;;;;;;;1999.90;999.90;;;1.30;99.90;;;;;;4972977;28;20328;-71
2023/12/04 01:04:04;;;;;;;1999.90;999.90;;;1.30;99.90;;;;;;4994561;28;20023;-71
2023/12/04 01:06:29;;;;;;;1999.90;999.90;;;1.30;99.90;;;;;;4993720;28;20049;-71
2023/12/04 01:08:56;;;;;;;1999.90;999.90;;;1.30;99.90;;;;;;4975519;28;20432;-71
2023/12/04 01:11:22;;;;;;;1999.90;999.90;;;1.30;99.90;;;;;;4991091;28;20336;-71
2023/12/04 01:13:48;;;;;;;1999.90;999.90;;;1.30;99.90;;;;;;4994151;28;20449;-71
2023/12/04 01:16:14;;;;;;;1999.90;999.90;;;1.30;99.90;;;;;;4989815;28;20049;-71
2023/12/04 01:18:43;;;;;;;1999.90;999.90;;;1.30;99.90;;;;;;4991696;28;20421;-71
2023/12/04 01:21:09;;;;;;;1999.90;999.90;;;1.30;99.90;;;;;;5000416;28;20056;-71
2023/12/04 01:23:35;;;;;;;1999.90;999.90;;;1.30;99.90;;;;;;4993017;28;20034;-71
2023/12/04 01:26:04;;;;;;;1999.90;999.90;;;1.40;99.90;;;;;;4988862;28;20056;-71
2023/12/04 01:28:30;;;;;;;1999.90;999.90;;;1.40;99.90;;;;;;5013897;28;20026;-71
2023/12/04 01:30:56;;;;;;;1999.90;999.90;;;1.40;99.90;;;;;;4992809;28;20045;-70
2023/12/04 01:33:22;;;;;;;1999.90;999.90;;;1.30;99.90;;;;;;5017379;28;20264;-70
2023/12/04 01:35:48;;;;;;;1999.90;999.90;;;1.30;99.90;;;;;;4988736;28;20087;-71
2023/12/04 01:38:13;;;;;;;1999.90;999.90;;;1.30;99.90;;;;;;4990871;28;20483;-70
2023/12/04 01:40:39;;;;;;;1999.90;999.90;;;1.40;99.90;;;;;;4992580;28;20022;-70
2023/12/04 01:43:05;;;;;;;1999.90;999.90;;;1.40;99.90;;;;;;4992509;28;20095;-70
2023/12/04 01:45:31;;;;;;;1999.90;999.90;;;1.40;99.90;;;;;;4989888;28;20026;-70
2023/12/04 01:47:58;;;;;;;1999.90;999.90;;;1.40;99.90;;;;;;4992078;28;20029;-70
2023/12/04 01:50:24;;;;;;;;;;;1.40;99.90;;;;;;4992150;28;20088;-70
2023/12/04 01:52:51;;;;;;;1999.90;999.90;;;1.40;99.90;;;;;;4988200;28;20216;-70
2023/12/04 01:55:17;;;;;;;1999.90;999.90;;;1.40;99.90;;;;;;4989411;28;20038;-70
2023/12/04 01:57:43;;;;;;;1999.90;999.90;;;1.40;99.90;;;;;;4993395;28;20045;-70
2023/12/04 02:00:11;;;;;;;1999.90;999.90;;;1.40;99.90;;;;;;4992826;28;20732;-70
2023/12/04 02:02:43;;;;;;;1999.90;999.90;;;1.40;99.90;;;;;;4990920;28;20033;-70
2023/12/04 02:05:10;;;;;;;1999.90;999.90;;;1.40;99.90;;;;;;4992751;28;20030;-70
2023/12/04 02:07:36;;;;;;;1999.90;999.90;;;1.40;99.90;;;;;;4991359;28;20034;-69
2023/12/04 02:10:03;;;;;;;1999.90;999.90;;;1.40;99.90;;;;;;4992882;28;20035;-70
2023/12/04 02:12:30;;;;;;;1999.90;999.90;;;1.40;99.90;;;;;;4990584;28;20436;-70
2023/12/04 02:14:56;;;;;;;1999.90;999.90;;;1.30;99.90;;;;;;4997858;28;20079;-70
2023/12/04 02:17:23;;;;;;;1999.90;999.90;;;1.40;99.90;;;;;;4985818;28;20043;-70
2023/12/04 02:19:48;;;;;;;1999.90;999.90;;;1.40;99.90;;;;;;4993357;28;20125;-71
2023/12/04 02:22:15;;;;;;;1999.90;999.90;;;1.40;99.90;;;;;;4989669;28;20097;-70
2023/12/04 02:24:41;;;;;;;1999.90;999.90;;;1.30;99.90;;;;;;4995960;28;20288;-70
2023/12/04 02:27:25;;;;;;;1999.90;999.90;;;1.30;99.90;;;;;;5018967;28;20050;-70
2023/12/04 02:29:58;;;;;;;1999.90;999.90;;;1.30;99.90;;;;;;4989624;28;20030;-70
2023/12/04 02:32:27;;;;;;;1999.90;999.90;;;1.30;99.90;;;;;;4990904;28;20026;-70
2023/12/04 02:34:54;;;;;;;1999.90;999.90;;;1.30;99.90;;;;;;5050748;28;20030;-70
2023/12/04 02:37:21;;;;;;;1999.90;999.90;;;1.40;99.90;;;;;;4993247;28;20045;-70
2023/12/04 02:39:48;;;;;;;1999.90;999.90;;;1.30;99.90;;;;;;4996311;28;20306;-70
2023/12/04 02:42:14;;;;;;;1999.90;999.90;;;1.30;99.90;;;;;;4992867;28;20026;-70
2023/12/04 02:44:40;;;;;;;1999.90;999.90;;;1.40;99.90;;;;;;5023628;28;20027;-70
2023/12/04 02:47:05;;;;;;;1999.90;999.90;;;1.30;99.90;;;;;;4994110;28;20260;-70
2023/12/04 02:49:31;;;;;;;1999.90;999.90;;;1.30;99.90;;;;;;4985458;28;20034;-70
2023/12/04 02:51:57;;;;;;;1999.90;999.90;;;1.30;99.90;;;;;;5018443;28;20072;-69
2023/12/04 02:54:23;;;;;;;1999.90;999.90;;;1.30;99.90;;;;;;4969146;28;20030;-70
2023/12/04 02:56:50;;;;;;;1999.90;999.90;;;1.30;99.90;;;;;;5025742;28;20313;-70
2023/12/04 02:59:15;;;;;;;1999.90;999.90;;;1.30;99.90;;;;;;4993251;28;20026;-70
2023/12/04 03:01:41;;;;;;;1999.90;999.90;;;1.30;99.90;;;;;;4978213;28;20036;-70
2023/12/04 03:04:07;;;;;;;1999.90;999.90;;;1.30;99.90;;;;;;4983395;28;20113;-70
2023/12/04 03:06:33;;;;;;;1999.90;999.90;;;1.30;99.90;;;;;;4992211;28;20052;-70
2023/12/04 03:08:59;;;;;;;1999.90;999.90;;;1.30;99.90;;;;;;4997340;28;20065;-69
2023/12/04 03:11:25;;;;;;;1999.90;999.90;;;1.30;99.90;;;;;;4993084;28;20035;-70
2023/12/04 03:13:51;;;;;;;1999.90;999.90;;;1.40;99.90;;;;;;5014177;28;20039;-70
2023/12/04 03:16:17;;;;;;;1999.90;999.90;;;1.30;99.90;;;;;;5008135;28;20097;-70
2023/12/04 03:18:43;;;;;;;1999.90;999.90;;;1.30;99.90;;;;;;4981383;28;20061;-69
2023/12/04 03:21:09;;;;;;;1999.90;999.90;;;1.40;99.90;;;;;;5019101;28;20041;-69
2023/12/04 03:23:34;;;;;;;1999.90;999.90;;;1.40;99.90;;;;;;4993355;28;20279;-70
2023/12/04 03:26:00;;;;;;;1999.90;999.90;;;1.30;99.90;;;;;;4988094;28;20100;-70
2023/12/04 03:28:26;;;;;;;1999.90;999.90;;;1.40;99.90;;;;;;4996530;28;20413;-69
2023/12/04 03:30:52;;;;;;;1999.90;999.90;;;1.30;99.90;;;;;;4990145;28;20147;-70
2023/12/04 03:33:17;;;;;;;1999.90;999.90;;;1.40;99.90;;;;;;5023270;28;20527;-70
2023/12/04 03:35:44;;;;;;;1999.90;999.90;;;1.30;99.90;;;;;;4984676;28;20026;-69
2023/12/04 03:38:09;;;;;;;1999.90;999.90;;;1.40;99.90;;;;;;4989494;28;20101;-69
2023/12/04 03:40:35;;;;;;;1999.90;999.90;;;1.30;99.90;;;;;;4991842;28;20118;-69
2023/12/04 03:43:01;;;;;;;1999.90;999.90;;;1.30;99.90;;;;;;4991544;28;20101;-70
2023/12/04 03:45:27;;;;;;;1999.90;999.90;;;1.30;99.90;;;;;;4991763;28;20037;-69
2023/12/04 03:47:52;;;;;;;1999.90;999.90;;;1.30;99.90;;;;;;4983318;28;20520;-69
2023/12/04 03:50:18;;;;;;;1999.90;999.90;;;1.30;99.90;;;;;;4989763;28;20050;-71
2023/12/04 03:52:44;;;;;;;1999.90;999.90;;;1.30;99.90;;;;;;4974171;28;20026;-69
2023/12/04 03:55:09;;;;;;;1999.90;999.90;;;1.30;99.90;;;;;;4990317;28;20057;-70
2023/12/04 03:57:35;;;;;;;1999.90;999.90;;;1.30;99.90;;;;;;4996174;28;20276;-69
2023/12/04 04:00:02;;;;;;;1999.90;999.90;;;1.30;99.90;;;;;;4991170;28;20084;-70
2023/12/04 04:02:28;;;;;;;1999.90;999.90;;;1.30;99.90;;;;;;4997539;28;20462;-69
2023/12/04 04:04:54;;;;;;;1999.90;999.90;;;1.30;99.90;;;;;;4989566;28;20046;-71
2023/12/04 04:07:20;;;;;;;1999.90;999.90;;;1.30;99.90;;;;;;4987162;28;20413;-69
2023/12/04 04:09:46;;;;;;;1999.90;999.90;;;1.20;99.90;;;;;;4989285;28;20033;-69
2023/12/04 04:12:11;;;;;;;1999.90;999.90;;;1.20;99.90;;;;;;4989608;28;20042;-69
2023/12/04 04:14:37;;;;;;;1999.90;999.90;;;1.30;99.90;;;;;;4991478;28;20038;-69
2023/12/04 04:17:03;;;;;;;1999.90;999.90;;;1.20;99.90;;;;;;4987760;28;20101;-69
2023/12/04 04:19:29;;;;;;;1999.90;999.90;;;1.20;99.90;;;;;;4993423;28;20121;-69
2023/12/04 04:21:56;;;;;;;1999.90;999.90;;;1.20;99.90;;;;;;4991567;28;20027;-69
2023/12/04 04:24:21;;;;;;;1999.90;999.90;;;1.20;99.90;;;;;;4991007;28;20046;-69
2023/12/04 04:26:47;;;;;;;1999.90;999.90;;;1.20;99.90;;;;;;4993984;28;20042;-69
2023/12/04 04:29:13;;;;;;;1999.90;999.90;;;1.20;99.90;;;;;;4993405;28;20030;-69
2023/12/04 04:31:39;;;;;;;1999.90;999.90;;;1.20;99.90;;;;;;4983300;28;20391;-69
2023/12/04 04:34:05;;;;;;;1999.90;999.90;;;1.20;99.90;;;;;;4991738;28;20054;-69
2023/12/04 04:36:30;;;;;;;1999.90;999.90;;;1.20;99.90;;;;;;4997665;28;20332;-69
2023/12/04 04:38:56;;;;;;;1999.90;999.90;;;1.20;99.90;;;;;;5000227;28;20149;-70
2023/12/04 04:41:22;;;;;;;1999.90;999.90;;;1.20;99.90;;;;;;4990851;28;20473;-69
2023/12/04 04:43:47;;;;;;;1999.90;999.90;;;1.20;99.90;;;;;;4985686;28;20024;-69
2023/12/04 04:46:13;;;;;;;1999.90;999.90;;;1.20;99.90;;;;;;4993490;28;20038;-70
2023/12/04 04:48:40;;;;;;;1999.90;999.90;;;1.20;99.90;;;;;;4992549;28;20030;-69
2023/12/04 04:51:06;;;;;;;1999.90;999.90;;;1.20;99.90;;;;;;4997566;28;20021;-69
2023/12/04 04:53:32;;;;;;;1999.90;999.90;;;1.20;99.90;;;;;;4996966;28;20463;-69
2023/12/04 04:55:58;;;;;;;1999.90;999.90;;;1.20;99.90;;;;;;4996682;28;20121;-69
2023/12/04 04:58:23;;;;;;;1999.90;999.90;;;1.30;99.90;;;;;;4989978;28;20424;-69
2023/12/04 05:00:49;;;;;;;1999.90;999.90;;;1.30;99.90;;;;;;4977493;28;20035;-70
2023/12/04 05:03:15;;;;;;;1999.90;999.90;;;1.40;99.90;;;;;;4994236;28;20034;-69
2023/12/04 05:05:41;;;;;;;1999.90;999.90;;;1.40;99.90;;;;;;4977451;28;20039;-69
2023/12/04 05:08:07;;;;;;;1999.90;999.90;;;1.30;99.90;;;;;;4993782;28;20159;-69
2023/12/04 05:10:32;;;;;;;1999.90;999.90;;;1.40;99.90;;;;;;5002157;28;20062;-70
2023/12/04 05:12:58;;;;;;;1999.90;999.90;;;1.40;99.90;;;;;;5003747;28;20038;-69
2023/12/04 05:15:24;;;;;;;1999.90;999.90;;;1.40;99.90;;;;;;4993612;28;20030;-69
2023/12/04 05:17:51;;;;;;;1999.90;999.90;;;1.40;99.90;;;;;;5007069;28;20030;-69
2023/12/04 05:20:16;;;;;;;1999.90;999.90;;;1.40;99.90;;;;;;4990172;28;20107;-70
2023/12/04 05:22:42;;;;;;;1999.90;999.90;;;1.40;99.90;;;;;;4991733;28;20054;-69
2023/12/04 05:25:08;;;;;;;1999.90;999.90;;;1.40;99.90;;;;;;4998598;28;21224;-69
2023/12/04 05:27:34;;;;;;;1999.90;999.90;;;1.40;99.90;;;;;;5007705;28;20025;-69
2023/12/04 05:29:59;;;;;;;1999.90;999.90;;;1.50;99.90;;;;;;5011028;28;20041;-70
2023/12/04 05:32:25;;;;;;;1999.90;999.90;;;1.50;99.90;;;;;;4976383;28;20107;-70
2023/12/04 05:34:51;;;;;;;1999.90;999.90;;;1.50;99.90;;;;;;4990118;28;20111;-69
2023/12/04 05:37:16;;;;;;;1999.90;999.90;;;1.50;99.90;;;;;;5006209;28;20545;-69
2023/12/04 05:39:42;;;;;;;1999.90;999.90;;;1.50;99.90;;;;;;5010970;28;20034;-69
2023/12/04 05:42:08;;;;;;;1999.90;999.90;;;1.40;99.90;;;;;;4996272;28;20031;-69
2023/12/04 05:44:34;;;;;;;1999.90;999.90;;;1.50;99.90;;;;;;5008802;28;20030;-69
2023/12/04 05:47:00;;;;;;;1999.90;999.90;;;1.40;99.90;;;;;;4993417;28;20432;-69
2023/12/04 05:49:26;;;;;;;1999.90;999.90;;;1.50;99.90;;;;;;4994689;28;20030;-69
2023/12/04 05:51:52;;;;;;;1999.90;999.90;;;1.50;99.90;;;;;;4989642;28;20046;-69
2023/12/04 05:54:18;;;;;;;1999.90;999.90;;;1.50;99.90;;;;;;4993841;28;20202;-69
2023/12/04 05:56:43;;;;;;;1999.90;999.90;;;1.50;99.90;;;;;;4987661;28;20276;-69
2023/12/04 05:59:09;;;;;;;1999.90;999.90;;;1.50;99.90;;;;;;4994714;28;20302;-69
2023/12/04 06:01:35;;;;;;;1999.90;999.90;;;1.50;99.90;;;;;;4976058;28;20052;-69
2023/12/04 06:04:01;;;;;;;1999.90;999.90;;;1.50;99.90;;;;;;4992619;28;20026;-69
2023/12/04 06:06:27;;;;;;;1999.90;999.90;;;1.50;99.90;;;;;;4979924;28;20629;-69
2023/12/04 06:08:53;;;;;;;1999.90;999.90;;;1.50;99.90;;;;;;4992709;28;20030;-69
2023/12/04 06:11:19;;;;;;;1999.90;999.90;;;1.50;99.90;;;;;;4976098;28;20026;-69
2023/12/04 06:13:44;;;;;;;1999.90;999.90;;;1.50;99.90;;;;;;4992240;28;20027;-69
2023/12/04 06:16:10;;;;;;;1999.90;999.90;;;1.50;99.90;;;;;;4993080;28;20077;-69
2023/12/04 06:18:36;;;;;;;1999.90;999.90;;;1.50;99.90;;;;;;4997484;28;20098;-69
2023/12/04 06:21:02;;;;;;;1999.90;999.90;;;1.50;99.90;;;;;;4993003;28;20023;-69
2023/12/04 06:23:28;;;;;;;1999.90;999.90;;;1.50;99.90;;;;;;4991532;28;20029;-69
2023/12/04 06:25:54;;;;;;;1999.90;999.90;;;1.50;99.90;;;;;;4989812;28;20034;-69
2023/12/04 06:28:20;;;;;;;1999.90;999.90;;;1.50;99.90;;;;;;4987871;28;20027;-69
2023/12/04 06:30:46;;;;;;;1999.90;999.90;;;1.50;99.90;;;;;;4990228;28;20076;-70
2023/12/04 06:33:14;;;;;;;1999.90;999.90;;;1.50;99.90;;;;;;4993065;28;20034;-69
2023/12/04 06:35:40;;;;;;;1999.90;999.90;;;1.60;99.90;;;;;;4981018;28;20078;-70
2023/12/04 06:38:07;;;;;;;1999.90;999.90;;;1.60;99.90;;;;;;4992314;28;20121;-70
2023/12/04 06:40:34;;;;;;;1999.90;999.90;;;1.60;99.90;;;;;;4991708;28;20379;-71
2023/12/04 06:43:00;;;;;;;1999.90;999.90;;;1.60;99.90;;;;;;4991898;28;20067;-71
2023/12/04 06:45:27;;;;;;;1999.90;999.90;;;1.60;99.90;;;;;;4975372;28;20157;-70
2023/12/04 06:47:54;;;;;;;1999.90;999.90;;;1.60;99.90;;;;;;4992519;28;20088;-69
2023/12/04 06:50:20;;;;;;;1999.90;999.90;;;1.60;99.90;;;;;;4991685;28;20056;-69
2023/12/04 06:52:46;;;;;;;1999.90;999.90;;;1.70;99.90;;;;;;4991778;28;20073;-69
2023/12/04 06:55:13;;;;;;;1999.90;999.90;;;1.70;99.90;;;;;;4990730;28;20079;-70
2023/12/04 06:57:39;;;;;;;1999.90;999.90;;;1.70;99.90;;;;;;4990498;28;20561;-69
2023/12/04 07:00:12;;;;;;;1999.90;999.90;;;1.70;99.90;;;;;;4989626;28;20029;-70
2023/12/04 07:02:38;;;;;;;1999.90;999.90;;;1.70;99.90;;;;;;4992191;28;20418;-69
2023/12/04 07:05:04;;;;;;;1999.90;999.90;;;1.70;99.90;;;;;;4991720;28;20046;-70
2023/12/04 07:07:30;;;;;;;1999.90;999.90;;;1.70;99.90;;;;;;4991292;28;20490;-69
2023/12/04 07:09:55;;;;;;;1999.90;999.90;;;1.70;99.90;;;;;;4991884;28;20042;-69
2023/12/04 07:12:21;;;;;;;1999.90;999.90;;;1.70;99.90;;;;;;4988666;28;20271;-69
2023/12/04 07:14:47;;;;;;;1999.90;999.90;;;1.70;99.90;;;;;;4991574;28;20055;-69
2023/12/04 07:17:13;;;;;;;1999.90;999.90;;;1.70;99.90;;;;;;4992043;28;20287;-70
2023/12/04 07:19:41;;;;;;;1999.90;999.90;;;1.70;99.90;;;;;;4991816;28;20126;-69
2023/12/04 07:22:08;;;;;;;1999.90;999.90;;;1.70;99.90;;;;;;4990120;28;20050;-69
2023/12/04 07:24:34;;;;;;;1999.90;999.90;;;1.70;99.90;;;;;;4991519;28;20109;-69
2023/12/04 07:27:00;;;;;;;1999.90;999.90;;;1.80;99.90;;;;;;5000864;28;20141;-69
2023/12/04 07:29:25;;;;;;;1999.90;999.90;;;1.70;99.90;;;;;;4982382;28;20022;-70
2023/12/04 07:31:51;;;;;;;1999.90;999.90;;;1.70;99.90;;;;;;4993956;28;20109;-70
2023/12/04 07:34:17;;;;;;;1999.90;999.90;;;1.70;99.90;;;;;;4989828;28;20041;-69
2023/12/04 07:36:44;;;;;;;1999.90;999.90;;;1.70;99.90;;;;;;5030834;28;20087;-70
2023/12/04 07:39:10;;;;;;;;;;;1.70;99.90;;;;;;4991699;28;20026;-70
2023/12/04 07:41:36;;;;;;;;;;;1.70;99.90;;;;;;4999117;28;19964;-69
2023/12/04 07:44:03;;;;;;;1999.90;999.90;;;1.70;99.90;;;;;;4991463;28;19957;-70
2023/12/04 07:46:29;;;;;;;1999.90;999.90;;;1.70;99.90;;;;;;4992852;28;20099;-71
2023/12/04 07:48:55;;;;;;;1999.90;999.90;;;1.70;99.90;;;;;;5003273;28;20331;-69
2023/12/04 07:51:21;;;;;;;1999.90;999.90;;;1.70;99.90;;;;;;4993689;28;20792;-69
2023/12/04 07:53:47;;;;;;;1999.90;999.90;;;1.80;99.90;;;;;;4996294;28;20031;-70
2023/12/04 07:56:13;;;;;;;1999.90;999.90;;;1.80;99.90;;;;;;4990177;28;20027;-69
2023/12/04 07:58:39;;;;;;;1999.90;999.90;;;1.80;99.90;;;;;;5010765;28;20054;-69
2023/12/04 08:01:06;;;;;;;1999.90;999.90;;;1.80;99.90;;;;;;5000033;28;20369;-69
2023/12/04 08:03:32;;;;;;;1999.90;999.90;;;1.90;99.90;;;;;;4989048;28;20123;-69
2023/12/04 08:06:00;;;;;;;1999.90;999.90;;;1.80;99.90;;;;;;4973501;28;20404;-69
2023/12/04 08:08:26;;;;;;;1999.90;999.90;;;1.90;99.90;;;;;;4989853;28;20325;-69
2023/12/04 08:10:54;;;;;;;1999.90;999.90;;;1.90;99.90;;;;;;5003490;28;20024;-68
2023/12/04 08:13:20;;;;;;;1999.90;999.90;;;1.90;99.90;;;;;;4999024;28;20022;-71
2023/12/04 08:15:46;;;;;;;1999.90;999.90;;;1.90;99.90;;;;;;5039672;28;20113;-69
2023/12/04 08:18:11;;;;;;;1999.90;999.90;;;2.00;99.90;;;;;;5044572;28;20119;-71
2023/12/04 08:20:37;;;;;;;1999.90;999.90;;;1.90;99.90;;;;;;5026561;28;20123;-70
2023/12/04 08:23:03;;;;;;;1999.90;999.90;;;2.00;99.90;;;;;;4999182;28;20054;-70
2023/12/04 08:25:29;;;;;;;1999.90;999.90;;;2.00;99.90;;;;;;5003488;28;20050;-70
2023/12/04 08:27:55;;;;;;;1999.90;999.90;;;2.00;99.90;;;;;;4985065;28;20033;-69
2023/12/04 08:30:21;;;;;;;1999.90;999.90;;;2.00;99.90;;;;;;5004897;28;20324;-70
2023/12/04 08:32:47;;;;;;;1999.90;999.90;;;2.10;99.90;;;;;;4990340;28;20026;-70
2023/12/04 08:35:13;;;;;;;1999.90;999.90;;;2.10;99.90;;;;;;4972032;28;20030;-71
2023/12/04 08:37:40;;;;;;;1999.90;999.90;;;2.10;99.90;;;;;;4988428;28;20042;-69
2023/12/04 08:40:08;;;;;;;1999.90;999.90;;;2.10;99.90;;;;;;4983829;28;20022;-70
2023/12/04 08:42:34;;;;;;;1999.90;999.90;;;2.10;99.90;;;;;;4987651;28;20037;-69
2023/12/04 08:45:00;;;;;;;1999.90;999.90;;;2.10;99.90;;;;;;4990075;28;20023;-69
2023/12/04 08:47:26;;;;;;;1999.90;999.90;;;2.10;99.90;;;;;;4990065;28;20026;-68
2023/12/04 08:49:52;;;;;;;1999.90;999.90;;;2.10;99.90;;;;;;4988643;28;20034;-69
2023/12/04 08:52:18;;;;;;;1999.90;999.90;;;2.10;99.90;;;;;;4990827;28;20502;-69
2023/12/04 08:54:44;;;;;;;1999.90;999.90;;;2.10;99.90;;;;;;4989961;28;20062;-69
2023/12/04 08:57:10;;;;;;;1999.90;999.90;;;2.10;99.90;;;;;;4989790;28;20056;-69
2023/12/04 08:59:35;;;;;;;1999.90;999.90;;;2.20;99.90;;;;;;4981492;28;20349;-69
2023/12/04 09:02:04;;;;;;;1999.90;999.90;;;2.20;99.90;;;;;;4990188;28;20019;-69
2023/12/04 09:04:31;;;;;;;1999.90;999.90;;;2.20;99.90;;;;;;4984866;28;20023;-69
2023/12/04 09:06:57;;;;;;;1999.90;999.90;;;2.20;99.90;;;;;;4990378;28;20031;-69
2023/12/04 09:09:23;;;;;;;1999.90;999.90;;;2.30;99.90;;;;;;4984640;28;20404;-69
2023/12/04 09:11:49;;;;;;;1999.90;999.90;;;2.30;99.90;;;;;;4988504;28;20034;-70
2023/12/04 09:14:15;;;;;;;1999.90;999.90;;;2.30;99.90;;;;;;4986081;28;20083;-68
2023/12/04 09:16:42;;;;;;;1999.90;999.90;;;2.40;99.90;;;;;;4972695;28;20344;-69
2023/12/04 09:19:08;;;;;;;;;;;2.40;99.90;;;;;;4973175;28;20038;-68
2023/12/04 09:21:35;;;;;;;1999.90;999.90;;;2.40;99.90;;;;;;4990164;28;19913;-69
2023/12/04 09:24:01;;;;;;;1999.90;999.90;;;2.40;99.90;;;;;;4992148;28;20022;-69
2023/12/04 09:26:27;;;;;;;1999.90;999.90;;;2.50;99.90;;;;;;5019092;28;20048;-69
2023/12/04 09:28:53;;;;;;;1999.90;999.90;;;2.50;99.90;;;;;;5057485;28;20033;-69
2023/12/04 09:31:19;;;;;;;1999.90;999.90;;;2.50;99.90;;;;;;5071760;28;20039;-69
2023/12/04 09:33:47;;;;;;;1999.90;999.90;;;2.50;99.90;;;;;;5029617;28;20277;-69
2023/12/04 09:36:13;;;;;;;1999.90;999.90;;;2.50;99.90;;;;;;5073031;28;20032;-71
2023/12/04 09:38:39;;;;;;;1999.90;999.90;;;2.60;99.90;;;;;;5069788;28;20036;-69
2023/12/04 09:41:09;;;;;;;1999.90;999.90;;;2.60;99.90;;;;;;5075881;28;20025;-69
2023/12/04 09:43:35;;;;;;;1999.90;999.90;;;2.60;99.90;;;;;;5077873;28;20023;-69
2023/12/04 09:46:01;;;;;;;1999.90;999.90;;;2.60;99.90;;;;;;5075809;28;20025;-69
2023/12/04 09:48:29;;;;;;;1999.90;999.90;;;2.60;99.90;;;;;;5057409;28;20102;-69
2023/12/04 09:50:56;;;;;;;1999.90;999.90;;;2.60;99.90;;;;;;5073210;28;20112;-70
2023/12/04 09:53:24;;;;;;;1999.90;999.90;;;2.70;99.90;;;;;;5069547;28;20033;-69
2023/12/04 09:55:50;;;;;;;1999.90;999.90;;;2.70;99.90;;;;;;5004537;28;20434;-69
2023/12/04 09:58:20;;;;;;;1999.90;999.90;;;2.70;99.90;;;;;;5037106;28;20024;-69
2023/12/04 10:00:47;;;;;;;1999.90;999.90;;;2.70;99.90;;;;;;5055945;28;20516;-70
2023/12/04 10:03:14;;;;;;;1999.90;999.90;;;2.80;99.90;;;;;;5056122;28;20031;-69
2023/12/04 10:05:47;;;;;;;1999.90;999.90;;;2.80;99.90;;;;;;5075361;28;20036;-69
2023/12/04 10:08:13;;;;;;;1999.90;999.90;;;2.80;99.90;;;;;;5073509;28;20319;-69
2023/12/04 10:10:39;;;;;;;1999.90;999.90;;;2.90;99.90;;;;;;5044629;28;20069;-69
2023/12/04 10:13:05;;;;;;;1999.90;999.90;;;2.90;99.90;;;;;;5007866;28;20465;-69
2023/12/04 10:15:32;;;;;;;1999.90;999.90;;;2.90;99.90;;;;;;5062017;28;20560;-69
2023/12/04 10:17:58;;;;;;;1999.90;999.90;;;2.90;99.90;;;;;;5057118;28;20040;-69
2023/12/04 10:20:24;;;;;;;1999.90;999.90;;;3.00;99.90;;;;;;5075218;28;20445;-69
2023/12/04 10:22:57;;;;;;;1999.90;999.90;;;3.00;99.90;;;;;;5074749;28;20035;-69
2023/12/04 10:25:25;;;;;;;1999.90;999.90;;;3.00;99.90;;;;;;5069628;28;20048;-69
2023/12/04 10:27:53;;;;;;;1999.90;999.90;;;3.00;99.90;;;;;;5050806;28;20021;-69
2023/12/04 10:30:31;;;;;;;1999.90;999.90;;;3.00;99.90;;;;;;5075923;28;20098;-69
2023/12/04 10:33:00;;;;;;;1999.90;999.90;;;3.00;99.90;;;;;;5054184;28;20589;-69
2023/12/04 10:35:38;;;;;;;1999.90;999.90;;;3.00;99.90;;;;;;5072736;28;20036;-69
2023/12/04 10:38:08;;;;;;;1999.90;999.90;;;3.00;99.90;;;;;;5052683;28;20025;-68
2023/12/04 10:40:36;;;;;;;1999.90;999.90;;;3.00;99.90;;;;;;5074578;28;20025;-69
2023/12/04 10:43:18;;;;;;;1999.90;999.90;;;3.00;99.90;;;;;;5076364;28;20090;-69
2023/12/04 10:45:45;;;;;;;1999.90;999.90;;;3.00;99.90;;;;;;5074218;28;20105;-69
2023/12/04 10:48:12;;;;;;;1999.90;999.90;;;3.00;99.90;;;;;;5073810;28;20025;-69
2023/12/04 10:50:39;;;;;;;;;;;3.00;99.90;;;;;;5074757;28;20069;-70
2023/12/04 10:53:07;;;;;;;1999.90;999.90;;;3.10;99.90;;;;;;5073997;28;19915;-70
2023/12/04 10:55:34;;;;;;;1999.90;999.90;;;3.10;99.90;;;;;;5075210;28;20435;-70
2023/12/04 10:58:05;;;;;;;1999.90;999.90;;;3.10;99.90;;;;;;5073502;28;20030;-69
2023/12/04 11:00:34;;;;;;;1999.90;999.90;;;3.10;99.90;;;;;;5073080;28;20085;-69
2023/12/04 11:03:13;;;;;;;1999.90;999.90;;;3.10;99.90;;;;;;5061477;28;20108;-69
2023/12/04 11:05:40;;;;;;;1999.90;999.90;;;3.20;99.90;;;;;;5067101;28;20123;-69
2023/12/04 11:08:11;;;;;;;1999.90;999.90;;;3.20;99.90;;;;;;5071130;28;20735;-68
2023/12/04 11:10:44;;;;;;;1999.90;999.90;;;3.20;99.90;;;;;;5058349;28;20108;-69
2023/12/04 11:13:28;;;;;;;1999.90;999.90;;;3.30;99.90;;;;;;5055528;28;20024;-69
2023/12/04 11:16:00;;;;;;;1999.90;999.90;;;3.20;99.90;;;;;;5066565;28;20025;-70
2023/12/04 11:18:28;;;;;;;1999.90;999.90;;;3.20;99.90;;;;;;5073376;28;20048;-69
2023/12/04 11:20:58;;;;;;;1999.90;999.90;;;3.20;99.90;;;;;;5071289;28;20115;-69
2023/12/04 11:23:26;;;;;;;1999.90;999.90;;;3.20;99.90;;;;;;5071917;28;20021;-69
2023/12/04 11:25:53;;;;;;;1999.90;999.90;;;3.20;99.90;;;;;;5021374;28;20050;-69
2023/12/04 11:28:19;;;;;;;1999.90;999.90;;;3.20;99.90;;;;;;4971769;28;20027;-69
2023/12/04 11:30:46;;;;;;;1999.90;999.90;;;3.20;99.90;;;;;;4984468;28;20034;-69
2023/12/04 11:33:12;;;;;;;1999.90;999.90;;;3.10;99.90;;;;;;4992336;28;20035;-69
2023/12/04 11:35:39;;;;;;;1999.90;999.90;;;3.20;99.90;;;;;;5031616;28;20336;-69
2023/12/04 11:38:07;;;;;;;;;;;3.20;99.90;;;;;;5005238;28;20026;-70
2023/12/04 11:40:32;;;;;;;1999.90;999.90;;;3.20;99.90;;;;;;4991580;28;19920;-69
2023/12/04 11:42:59;;;;;;;1999.90;999.90;;;3.20;99.90;;;;;;4982683;28;20026;-69
2023/12/04 11:45:25;;;;;;;1999.90;999.90;;;3.20;99.90;;;;;;5021188;28;20317;-69
2023/12/04 11:47:58;;;;;;;1999.90;999.90;;;3.20;99.90;;;;;;5039811;28;20038;-69
2023/12/04 11:50:25;;;;;;;1999.90;999.90;;;3.20;99.90;;;;;;4991597;28;20058;-69
2023/12/04 11:52:51;;;;;;;1999.90;999.90;;;3.20;99.90;;;;;;4991144;28;20033;-70
2023/12/04 11:55:25;;;;;;;1999.90;999.90;;;3.10;99.90;;;;;;5003617;28;20186;-69
2023/12/04 11:57:54;;;;;;;1999.90;999.90;;;3.20;99.90;;;;;;4992928;28;20030;-69
2023/12/04 12:00:24;;;;;;;1999.90;999.90;;;3.20;99.90;;;;;;4989949;28;20038;-69
2023/12/04 12:02:52;;;;;;;1999.90;999.90;;;3.20;99.90;;;;;;4998946;28;20026;-69
2023/12/04 12:05:20;;;;;;;1999.90;999.90;;;3.20;99.90;;;;;;4976541;28;20034;-69
2023/12/04 12:07:47;;;;;;;1999.90;999.90;;;3.20;99.90;;;;;;4996286;28;20018;-69